sensor_id;sensor_type;location;lat;lon;timestamp;P1;durP1;ratioP1;P2;durP2;ratioP2
16478;SDS011;8350;52.316;10.530;2023-04-15T00:01:51;6.07;;;5.47;;
16478;SDS011;8350;52.316;10.530;2023-04-15T00:04:18;6.35;;;5.68;;
16478;SDS011;8350;52.316;10.530;2023-04-15T00:06:48;6.50;;;5.90;;
16478;SDS011;8350;52.316;10.530;2023-04-15T00:09:17;6.28;;;5.63;;
16478;SDS011;8350;52.316;10.530;2023-04-15T00:11:44;6.18;;;5.57;;
16478;SDS011;8350;52.316;10.530;2023-04-15T00:14:13;5.75;;;5.18;;
16478;SDS011;8350;52.316;10.530;2023-04-15T00:16:40;6.60;;;6.00;;
16478;SDS011;8350;52.316;10.530;2023-04-15T00:19:07;6.30;;;5.70;;
16478;SDS011;8350;52.316;10.530;2023-04-15T00:21:36;7.70;;;6.70;;
16478;SDS011;8350;52.316;10.530;2023-04-15T00:24:08;6.97;;;6.07;;
16478;SDS011;8350;52.316;10.530;2023-04-15T00:26:38;7.05;;;6.35;;
16478;SDS011;8350;52.316;10.530;2023-04-15T00:29:05;7.97;;;7.18;;
16478;SDS011;8350;52.316;10.530;2023-04-15T00:31:33;7.40;;;6.70;;
16478;SDS011;8350;52.316;10.530;2023-04-15T00:34:01;7.65;;;6.85;;
16478;SDS011;8350;52.316;10.530;2023-04-15T00:36:28;8.73;;;7.38;;
16478;SDS011;8350;52.316;10.530;2023-04-15T00:38:55;7.68;;;6.60;;
16478;SDS011;8350;52.316;10.530;2023-04-15T00:41:22;7.68;;;6.90;;
16478;SDS011;8350;52.316;10.530;2023-04-15T00:43:49;8.93;;;7.30;;
16478;SDS011;8350;52.316;10.530;2023-04-15T00:46:18;8.75;;;6.57;;
16478;SDS011;8350;52.316;10.530;2023-04-15T00:48:49;8.98;;;7.03;;
16478;SDS011;8350;52.316;10.530;2023-04-15T00:51:17;8.52;;;7.68;;
16478;SDS011;8350;52.316;10.530;2023-04-15T00:53:45;9.82;;;7.80;;
16478;SDS011;8350;52.316;10.530;2023-04-15T00:56:12;9.18;;;7.18;;
16478;SDS011;8350;52.316;10.530;2023-04-15T00:58:39;7.57;;;6.88;;
16478;SDS011;8350;52.316;10.530;2023-04-15T01:01:07;11.40;;;7.97;;
16478;SDS011;8350;52.316;10.530;2023-04-15T01:03:35;9.88;;;7.97;;
16478;SDS011;8350;52.316;10.530;2023-04-15T01:06:05;9.63;;;7.85;;
16478;SDS011;8350;52.316;10.530;2023-04-15T01:08:32;10.38;;;8.00;;
16478;SDS011;8350;52.316;10.530;2023-04-15T01:11:00;9.75;;;8.55;;
16478;SDS011;8350;52.316;10.530;2023-04-15T01:13:28;10.95;;;8.30;;
16478;SDS011;8350;52.316;10.530;2023-04-15T01:15:55;11.02;;;8.20;;
16478;SDS011;8350;52.316;10.530;2023-04-15T01:18:24;10.77;;;8.85;;
16478;SDS011;8350;52.316;10.530;2023-04-15T01:20:52;10.32;;;9.23;;
16478;SDS011;8350;52.316;10.530;2023-04-15T01:23:21;10.93;;;9.00;;
16478;SDS011;8350;52.316;10.530;2023-04-15T01:25:50;11.25;;;10.13;;
16478;SDS011;8350;52.316;10.530;2023-04-15T01:28:18;13.02;;;10.40;;
16478;SDS011;8350;52.316;10.530;2023-04-15T01:30:45;11.52;;;9.93;;
16478;SDS011;8350;52.316;10.530;2023-04-15T01:33:15;10.82;;;9.02;;
16478;SDS011;8350;52.316;10.530;2023-04-15T01:35:45;12.82;;;10.52;;
16478;SDS011;8350;52.316;10.530;2023-04-15T01:38:12;12.90;;;10.90;;
16478;SDS011;8350;52.316;10.530;2023-04-15T01:40:39;15.32;;;11.70;;
16478;SDS011;8350;52.316;10.530;2023-04-15T01:43:07;11.88;;;10.63;;
16478;SDS011;8350;52.316;10.530;2023-04-15T01:45:34;15.00;;;11.65;;
16478;SDS011;8350;52.316;10.530;2023-04-15T01:48:01;14.45;;;11.65;;
16478;SDS011;8350;52.316;10.530;2023-04-15T01:50:29;12.45;;;10.80;;
16478;SDS011;8350;52.316;10.530;2023-04-15T01:52:55;15.43;;;11.43;;
16478;SDS011;8350;52.316;10.530;2023-04-15T01:55:22;12.95;;;11.05;;
16478;SDS011;8350;52.316;10.530;2023-04-15T01:57:49;12.60;;;11.02;;
16478;SDS011;8350;52.316;10.530;2023-04-15T02:00:18;14.50;;;11.73;;
16478;SDS011;8350;52.316;10.530;2023-04-15T02:02:46;13.43;;;11.18;;
16478;SDS011;8350;52.316;10.530;2023-04-15T02:05:13;13.55;;;12.00;;
16478;SDS011;8350;52.316;10.530;2023-04-15T02:07:41;15.95;;;11.48;;
16478;SDS011;8350;52.316;10.530;2023-04-15T02:10:08;14.23;;;11.13;;
16478;SDS011;8350;52.316;10.530;2023-04-15T02:12:37;14.32;;;12.48;;
16478;SDS011;8350;52.316;10.530;2023-04-15T02:15:05;11.82;;;10.60;;
16478;SDS011;8350;52.316;10.530;2023-04-15T02:17:35;14.80;;;11.38;;
16478;SDS011;8350;52.316;10.530;2023-04-15T02:20:03;13.20;;;10.95;;
16478;SDS011;8350;52.316;10.530;2023-04-15T02:22:31;12.75;;;11.40;;
16478;SDS011;8350;52.316;10.530;2023-04-15T02:25:06;14.75;;;11.88;;
16478;SDS011;8350;52.316;10.530;2023-04-15T02:27:40;14.30;;;11.55;;
16478;SDS011;8350;52.316;10.530;2023-04-15T02:30:07;13.07;;;11.13;;
16478;SDS011;8350;52.316;10.530;2023-04-15T02:32:36;14.38;;;12.63;;
16478;SDS011;8350;52.316;10.530;2023-04-15T02:35:03;14.90;;;12.27;;
16478;SDS011;8350;52.316;10.530;2023-04-15T02:37:31;14.48;;;11.98;;
16478;SDS011;8350;52.316;10.530;2023-04-15T02:40:01;14.25;;;12.10;;
16478;SDS011;8350;52.316;10.530;2023-04-15T02:42:29;18.55;;;13.38;;
16478;SDS011;8350;52.316;10.530;2023-04-15T02:44:56;15.82;;;12.40;;
16478;SDS011;8350;52.316;10.530;2023-04-15T02:47:23;17.30;;;13.13;;
16478;SDS011;8350;52.316;10.530;2023-04-15T02:49:51;15.38;;;12.73;;
16478;SDS011;8350;52.316;10.530;2023-04-15T02:52:27;17.73;;;13.70;;
16478;SDS011;8350;52.316;10.530;2023-04-15T02:55:12;16.33;;;13.23;;
16478;SDS011;8350;52.316;10.530;2023-04-15T02:57:42;17.38;;;13.85;;
16478;SDS011;8350;52.316;10.530;2023-04-15T03:00:10;19.98;;;15.50;;
16478;SDS011;8350;52.316;10.530;2023-04-15T03:02:38;20.05;;;15.35;;
16478;SDS011;8350;52.316;10.530;2023-04-15T03:05:09;21.55;;;14.75;;
16478;SDS011;8350;52.316;10.530;2023-04-15T03:07:40;18.60;;;14.52;;
16478;SDS011;8350;52.316;10.530;2023-04-15T03:10:11;20.88;;;14.80;;
16478;SDS011;8350;52.316;10.530;2023-04-15T03:12:38;18.38;;;14.73;;
16478;SDS011;8350;52.316;10.530;2023-04-15T03:15:08;22.35;;;15.45;;
16478;SDS011;8350;52.316;10.530;2023-04-15T03:17:38;19.60;;;15.20;;
16478;SDS011;8350;52.316;10.530;2023-04-15T03:20:15;19.52;;;15.05;;
16478;SDS011;8350;52.316;10.530;2023-04-15T03:22:42;21.67;;;15.20;;
16478;SDS011;8350;52.316;10.530;2023-04-15T03:25:10;22.10;;;15.45;;
16478;SDS011;8350;52.316;10.530;2023-04-15T03:27:37;25.55;;;17.45;;
16478;SDS011;8350;52.316;10.530;2023-04-15T03:30:05;26.30;;;17.95;;
16478;SDS011;8350;52.316;10.530;2023-04-15T03:32:33;24.92;;;18.15;;
16478;SDS011;8350;52.316;10.530;2023-04-15T03:35:04;27.88;;;17.83;;
16478;SDS011;8350;52.316;10.530;2023-04-15T03:37:36;27.30;;;17.45;;
16478;SDS011;8350;52.316;10.530;2023-04-15T03:40:03;27.42;;;17.65;;
16478;SDS011;8350;52.316;10.530;2023-04-15T03:42:31;29.25;;;18.75;;
16478;SDS011;8350;52.316;10.530;2023-04-15T03:44:58;28.83;;;18.58;;
16478;SDS011;8350;52.316;10.530;2023-04-15T03:47:31;28.23;;;19.25;;
16478;SDS011;8350;52.316;10.530;2023-04-15T03:49:58;27.30;;;17.77;;
16478;SDS011;8350;52.316;10.530;2023-04-15T03:52:25;28.25;;;19.40;;
16478;SDS011;8350;52.316;10.530;2023-04-15T03:54:54;28.27;;;18.90;;
16478;SDS011;8350;52.316;10.530;2023-04-15T03:57:21;27.02;;;18.15;;
16478;SDS011;8350;52.316;10.530;2023-04-15T03:59:47;25.77;;;17.23;;
16478;SDS011;8350;52.316;10.530;2023-04-15T04:02:14;25.90;;;17.83;;
16478;SDS011;8350;52.316;10.530;2023-04-15T04:04:41;26.55;;;18.63;;
16478;SDS011;8350;52.316;10.530;2023-04-15T04:07:08;26.67;;;18.70;;
16478;SDS011;8350;52.316;10.530;2023-04-15T04:09:40;24.73;;;16.55;;
16478;SDS011;8350;52.316;10.530;2023-04-15T04:12:09;26.50;;;17.77;;
16478;SDS011;8350;52.316;10.530;2023-04-15T04:14:35;24.38;;;16.80;;
16478;SDS011;8350;52.316;10.530;2023-04-15T04:17:03;29.13;;;19.27;;
16478;SDS011;8350;52.316;10.530;2023-04-15T04:19:29;25.23;;;17.13;;
16478;SDS011;8350;52.316;10.530;2023-04-15T04:21:56;26.35;;;18.15;;
16478;SDS011;8350;52.316;10.530;2023-04-15T04:24:23;27.55;;;17.08;;
16478;SDS011;8350;52.316;10.530;2023-04-15T04:26:53;26.80;;;17.35;;
16478;SDS011;8350;52.316;10.530;2023-04-15T04:29:22;32.40;;;19.70;;
16478;SDS011;8350;52.316;10.530;2023-04-15T04:31:48;25.83;;;18.58;;
16478;SDS011;8350;52.316;10.530;2023-04-15T04:34:15;26.40;;;19.10;;
16478;SDS011;8350;52.316;10.530;2023-04-15T04:36:42;26.85;;;20.25;;
16478;SDS011;8350;52.316;10.530;2023-04-15T04:39:11;28.00;;;18.42;;
16478;SDS011;8350;52.316;10.530;2023-04-15T04:41:38;27.05;;;18.02;;
16478;SDS011;8350;52.316;10.530;2023-04-15T04:44:07;26.00;;;18.05;;
16478;SDS011;8350;52.316;10.530;2023-04-15T04:46:36;24.40;;;17.73;;
16478;SDS011;8350;52.316;10.530;2023-04-15T04:49:02;28.50;;;18.08;;
16478;SDS011;8350;52.316;10.530;2023-04-15T04:51:29;23.90;;;17.05;;
16478;SDS011;8350;52.316;10.530;2023-04-15T04:53:57;22.98;;;15.50;;
16478;SDS011;8350;52.316;10.530;2023-04-15T04:56:24;24.65;;;16.95;;
16478;SDS011;8350;52.316;10.530;2023-04-15T04:58:51;24.17;;;16.67;;
16478;SDS011;8350;52.316;10.530;2023-04-15T05:01:18;24.05;;;16.13;;
16478;SDS011;8350;52.316;10.530;2023-04-15T05:03:48;20.85;;;14.25;;
16478;SDS011;8350;52.316;10.530;2023-04-15T05:06:15;19.67;;;13.30;;
16478;SDS011;8350;52.316;10.530;2023-04-15T05:08:42;21.02;;;14.50;;
16478;SDS011;8350;52.316;10.530;2023-04-15T05:11:11;21.85;;;14.90;;
16478;SDS011;8350;52.316;10.530;2023-04-15T05:13:38;21.55;;;14.63;;
16478;SDS011;8350;52.316;10.530;2023-04-15T05:16:05;19.42;;;13.15;;
16478;SDS011;8350;52.316;10.530;2023-04-15T05:18:32;18.42;;;13.30;;
16478;SDS011;8350;52.316;10.530;2023-04-15T05:21:00;19.52;;;13.73;;
16478;SDS011;8350;52.316;10.530;2023-04-15T05:23:27;20.45;;;14.43;;
16478;SDS011;8350;52.316;10.530;2023-04-15T05:25:55;22.20;;;14.27;;
16478;SDS011;8350;52.316;10.530;2023-04-15T05:28:21;23.45;;;14.85;;
16478;SDS011;8350;52.316;10.530;2023-04-15T05:30:48;21.77;;;15.25;;
16478;SDS011;8350;52.316;10.530;2023-04-15T05:33:15;24.00;;;16.27;;
16478;SDS011;8350;52.316;10.530;2023-04-15T05:35:43;24.33;;;17.08;;
16478;SDS011;8350;52.316;10.530;2023-04-15T05:38:11;23.58;;;16.42;;
16478;SDS011;8350;52.316;10.530;2023-04-15T05:40:38;22.88;;;14.57;;
16478;SDS011;8350;52.316;10.530;2023-04-15T05:43:05;20.27;;;14.68;;
16478;SDS011;8350;52.316;10.530;2023-04-15T05:45:32;18.58;;;14.40;;
16478;SDS011;8350;52.316;10.530;2023-04-15T05:48:00;20.80;;;14.45;;
16478;SDS011;8350;52.316;10.530;2023-04-15T05:50:26;18.88;;;12.80;;
16478;SDS011;8350;52.316;10.530;2023-04-15T05:52:53;17.88;;;12.88;;
16478;SDS011;8350;52.316;10.530;2023-04-15T05:55:22;19.80;;;13.50;;
16478;SDS011;8350;52.316;10.530;2023-04-15T05:57:49;18.60;;;13.35;;
16478;SDS011;8350;52.316;10.530;2023-04-15T06:00:16;16.90;;;12.95;;
16478;SDS011;8350;52.316;10.530;2023-04-15T06:02:44;17.92;;;13.43;;
16478;SDS011;8350;52.316;10.530;2023-04-15T06:05:11;15.02;;;12.25;;
16478;SDS011;8350;52.316;10.530;2023-04-15T06:07:38;17.98;;;13.02;;
16478;SDS011;8350;52.316;10.530;2023-04-15T06:10:06;19.42;;;13.60;;
16478;SDS011;8350;52.316;10.530;2023-04-15T06:12:35;15.55;;;12.70;;
16478;SDS011;8350;52.316;10.530;2023-04-15T06:15:03;17.92;;;13.30;;
16478;SDS011;8350;52.316;10.530;2023-04-15T06:17:33;14.88;;;11.68;;
16478;SDS011;8350;52.316;10.530;2023-04-15T06:20:00;15.27;;;12.57;;
16478;SDS011;8350;52.316;10.530;2023-04-15T06:22:29;18.85;;;13.52;;
16478;SDS011;8350;52.316;10.530;2023-04-15T06:24:56;16.10;;;12.60;;
16478;SDS011;8350;52.316;10.530;2023-04-15T06:27:23;14.57;;;11.98;;
16478;SDS011;8350;52.316;10.530;2023-04-15T06:29:51;17.48;;;13.00;;
16478;SDS011;8350;52.316;10.530;2023-04-15T06:32:18;15.85;;;11.95;;
16478;SDS011;8350;52.316;10.530;2023-04-15T06:34:45;18.52;;;14.10;;
16478;SDS011;8350;52.316;10.530;2023-04-15T06:37:12;15.80;;;12.07;;
16478;SDS011;8350;52.316;10.530;2023-04-15T06:39:40;19.67;;;13.45;;
16478;SDS011;8350;52.316;10.530;2023-04-15T06:42:08;18.38;;;12.57;;
16478;SDS011;8350;52.316;10.530;2023-04-15T06:44:36;16.52;;;12.57;;
16478;SDS011;8350;52.316;10.530;2023-04-15T06:47:11;16.85;;;12.85;;
16478;SDS011;8350;52.316;10.530;2023-04-15T06:49:39;14.35;;;11.20;;
16478;SDS011;8350;52.316;10.530;2023-04-15T06:52:07;15.93;;;11.43;;
16478;SDS011;8350;52.316;10.530;2023-04-15T06:54:35;15.98;;;11.43;;
16478;SDS011;8350;52.316;10.530;2023-04-15T06:57:02;12.73;;;9.80;;
16478;SDS011;8350;52.316;10.530;2023-04-15T06:59:29;11.25;;;10.05;;
16478;SDS011;8350;52.316;10.530;2023-04-15T07:01:56;12.10;;;10.38;;
16478;SDS011;8350;52.316;10.530;2023-04-15T07:04:27;11.80;;;9.50;;
16478;SDS011;8350;52.316;10.530;2023-04-15T07:06:57;12.65;;;9.23;;
16478;SDS011;8350;52.316;10.530;2023-04-15T07:09:24;11.55;;;9.80;;
16478;SDS011;8350;52.316;10.530;2023-04-15T07:11:51;11.07;;;8.85;;
16478;SDS011;8350;52.316;10.530;2023-04-15T07:14:18;11.00;;;8.63;;
16478;SDS011;8350;52.316;10.530;2023-04-15T07:16:45;10.63;;;8.70;;
16478;SDS011;8350;52.316;10.530;2023-04-15T07:19:12;9.80;;;8.18;;
16478;SDS011;8350;52.316;10.530;2023-04-15T07:21:40;10.77;;;8.75;;
16478;SDS011;8350;52.316;10.530;2023-04-15T07:24:07;9.77;;;8.45;;
16478;SDS011;8350;52.316;10.530;2023-04-15T07:26:35;8.38;;;7.40;;
16478;SDS011;8350;52.316;10.530;2023-04-15T07:29:01;9.75;;;8.50;;
16478;SDS011;8350;52.316;10.530;2023-04-15T07:31:28;9.43;;;7.97;;
16478;SDS011;8350;52.316;10.530;2023-04-15T07:33:55;8.55;;;7.03;;
16478;SDS011;8350;52.316;10.530;2023-04-15T07:36:22;9.15;;;7.45;;
16478;SDS011;8350;52.316;10.530;2023-04-15T07:38:50;9.10;;;7.50;;
16478;SDS011;8350;52.316;10.530;2023-04-15T07:41:17;8.90;;;7.30;;
16478;SDS011;8350;52.316;10.530;2023-04-15T07:43:44;8.18;;;6.90;;
16478;SDS011;8350;52.316;10.530;2023-04-15T07:46:11;8.38;;;7.45;;
16478;SDS011;8350;52.316;10.530;2023-04-15T07:48:40;8.63;;;7.00;;
16478;SDS011;8350;52.316;10.530;2023-04-15T07:51:06;8.30;;;7.47;;
16478;SDS011;8350;52.316;10.530;2023-04-15T07:53:34;9.07;;;7.30;;
16478;SDS011;8350;52.316;10.530;2023-04-15T07:56:04;8.95;;;7.85;;
16478;SDS011;8350;52.316;10.530;2023-04-15T07:58:31;9.32;;;7.50;;
16478;SDS011;8350;52.316;10.530;2023-04-15T08:00:58;8.65;;;6.97;;
16478;SDS011;8350;52.316;10.530;2023-04-15T08:03:25;8.20;;;7.28;;
16478;SDS011;8350;52.316;10.530;2023-04-15T08:05:52;8.57;;;7.10;;
16478;SDS011;8350;52.316;10.530;2023-04-15T08:08:19;9.30;;;7.25;;
16478;SDS011;8350;52.316;10.530;2023-04-15T08:10:46;8.73;;;6.93;;
16478;SDS011;8350;52.316;10.530;2023-04-15T08:13:14;8.63;;;6.72;;
16478;SDS011;8350;52.316;10.530;2023-04-15T08:15:41;9.60;;;7.38;;
16478;SDS011;8350;52.316;10.530;2023-04-15T08:18:08;10.30;;;7.70;;
16478;SDS011;8350;52.316;10.530;2023-04-15T08:20:35;9.38;;;8.40;;
16478;SDS011;8350;52.316;10.530;2023-04-15T08:23:01;9.07;;;8.10;;
16478;SDS011;8350;52.316;10.530;2023-04-15T08:25:31;10.15;;;8.15;;
16478;SDS011;8350;52.316;10.530;2023-04-15T08:28:02;9.75;;;8.75;;
16478;SDS011;8350;52.316;10.530;2023-04-15T08:30:32;12.25;;;9.68;;
16478;SDS011;8350;52.316;10.530;2023-04-15T08:33:00;11.68;;;9.45;;
16478;SDS011;8350;52.316;10.530;2023-04-15T08:35:27;12.30;;;10.10;;
16478;SDS011;8350;52.316;10.530;2023-04-15T08:37:54;11.68;;;9.40;;
16478;SDS011;8350;52.316;10.530;2023-04-15T08:40:21;10.65;;;9.43;;
16478;SDS011;8350;52.316;10.530;2023-04-15T08:42:55;12.38;;;9.88;;
16478;SDS011;8350;52.316;10.530;2023-04-15T08:45:24;12.20;;;9.75;;
16478;SDS011;8350;52.316;10.530;2023-04-15T08:47:53;13.20;;;9.55;;
16478;SDS011;8350;52.316;10.530;2023-04-15T08:50:22;15.60;;;12.27;;
16478;SDS011;8350;52.316;10.530;2023-04-15T08:52:52;13.52;;;11.48;;
16478;SDS011;8350;52.316;10.530;2023-04-15T08:55:20;15.50;;;11.38;;
16478;SDS011;8350;52.316;10.530;2023-04-15T08:57:48;16.55;;;12.80;;
16478;SDS011;8350;52.316;10.530;2023-04-15T09:00:16;15.50;;;13.00;;
16478;SDS011;8350;52.316;10.530;2023-04-15T09:02:43;20.13;;;14.60;;
16478;SDS011;8350;52.316;10.530;2023-04-15T09:05:12;19.65;;;15.00;;
16478;SDS011;8350;52.316;10.530;2023-04-15T09:07:38;25.25;;;17.92;;
16478;SDS011;8350;52.316;10.530;2023-04-15T09:10:06;28.48;;;19.85;;
16478;SDS011;8350;52.316;10.530;2023-04-15T09:12:34;30.70;;;20.92;;
16478;SDS011;8350;52.316;10.530;2023-04-15T09:15:01;24.90;;;18.13;;
16478;SDS011;8350;52.316;10.530;2023-04-15T09:17:29;26.50;;;19.63;;
16478;SDS011;8350;52.316;10.530;2023-04-15T09:20:08;25.63;;;19.48;;
16478;SDS011;8350;52.316;10.530;2023-04-15T09:22:38;27.40;;;20.00;;
16478;SDS011;8350;52.316;10.530;2023-04-15T09:25:24;27.63;;;20.38;;
16478;SDS011;8350;52.316;10.530;2023-04-15T09:27:52;31.00;;;22.30;;
16478;SDS011;8350;52.316;10.530;2023-04-15T09:30:20;30.52;;;21.83;;
16478;SDS011;8350;52.316;10.530;2023-04-15T09:32:48;31.10;;;23.27;;
16478;SDS011;8350;52.316;10.530;2023-04-15T09:35:19;33.88;;;22.25;;
16478;SDS011;8350;52.316;10.530;2023-04-15T09:37:47;32.95;;;21.88;;
16478;SDS011;8350;52.316;10.530;2023-04-15T09:40:17;30.30;;;23.42;;
16478;SDS011;8350;52.316;10.530;2023-04-15T09:42:56;30.40;;;21.83;;
16478;SDS011;8350;52.316;10.530;2023-04-15T09:45:23;31.98;;;23.13;;
16478;SDS011;8350;52.316;10.530;2023-04-15T09:47:51;35.75;;;24.15;;
16478;SDS011;8350;52.316;10.530;2023-04-15T09:50:18;30.15;;;23.05;;
16478;SDS011;8350;52.316;10.530;2023-04-15T09:52:47;33.70;;;24.25;;
16478;SDS011;8350;52.316;10.530;2023-04-15T09:55:17;36.30;;;25.10;;
16478;SDS011;8350;52.316;10.530;2023-04-15T09:57:44;37.72;;;24.60;;
16478;SDS011;8350;52.316;10.530;2023-04-15T10:00:12;36.22;;;24.17;;
16478;SDS011;8350;52.316;10.530;2023-04-15T10:02:40;33.60;;;24.23;;
16478;SDS011;8350;52.316;10.530;2023-04-15T10:05:09;31.58;;;24.98;;
16478;SDS011;8350;52.316;10.530;2023-04-15T10:07:39;35.42;;;24.67;;
16478;SDS011;8350;52.316;10.530;2023-04-15T10:10:08;33.97;;;24.63;;
16478;SDS011;8350;52.316;10.530;2023-04-15T10:12:37;33.75;;;24.77;;
16478;SDS011;8350;52.316;10.530;2023-04-15T10:15:06;32.67;;;24.63;;
16478;SDS011;8350;52.316;10.530;2023-04-15T10:17:40;34.25;;;24.15;;
16478;SDS011;8350;52.316;10.530;2023-04-15T10:20:10;34.22;;;24.17;;
16478;SDS011;8350;52.316;10.530;2023-04-15T10:22:39;33.28;;;24.42;;
16478;SDS011;8350;52.316;10.530;2023-04-15T10:25:11;34.08;;;24.55;;
16478;SDS011;8350;52.316;10.530;2023-04-15T10:27:40;34.25;;;25.85;;
16478;SDS011;8350;52.316;10.530;2023-04-15T10:30:07;37.22;;;26.58;;
16478;SDS011;8350;52.316;10.530;2023-04-15T10:32:35;38.45;;;26.63;;
16478;SDS011;8350;52.316;10.530;2023-04-15T10:35:03;31.83;;;25.17;;
16478;SDS011;8350;52.316;10.530;2023-04-15T10:37:33;30.75;;;23.60;;
16478;SDS011;8350;52.316;10.530;2023-04-15T10:40:06;33.17;;;23.17;;
16478;SDS011;8350;52.316;10.530;2023-04-15T10:42:52;31.25;;;23.73;;
16478;SDS011;8350;52.316;10.530;2023-04-15T10:45:20;30.05;;;22.60;;
16478;SDS011;8350;52.316;10.530;2023-04-15T10:47:50;30.23;;;23.30;;
16478;SDS011;8350;52.316;10.530;2023-04-15T10:50:30;31.60;;;25.23;;
16478;SDS011;8350;52.316;10.530;2023-04-15T10:52:58;30.90;;;23.73;;
16478;SDS011;8350;52.316;10.530;2023-04-15T10:55:31;29.83;;;22.88;;
16478;SDS011;8350;52.316;10.530;2023-04-15T10:57:59;28.27;;;22.92;;
16478;SDS011;8350;52.316;10.530;2023-04-15T11:00:28;32.25;;;25.25;;
16478;SDS011;8350;52.316;10.530;2023-04-15T11:02:56;32.60;;;25.08;;
16478;SDS011;8350;52.316;10.530;2023-04-15T11:08:16;33.60;;;26.45;;
16478;SDS011;8350;52.316;10.530;2023-04-15T11:11:05;34.72;;;26.13;;
16478;SDS011;8350;52.316;10.530;2023-04-15T11:13:32;33.80;;;26.00;;
16478;SDS011;8350;52.316;10.530;2023-04-15T11:16:00;37.30;;;26.67;;
16478;SDS011;8350;52.316;10.530;2023-04-15T11:18:29;34.53;;;26.65;;
16478;SDS011;8350;52.316;10.530;2023-04-15T11:21:00;36.85;;;29.02;;
16478;SDS011;8350;52.316;10.530;2023-04-15T11:23:29;33.75;;;27.25;;
16478;SDS011;8350;52.316;10.530;2023-04-15T11:25:59;34.03;;;26.17;;
16478;SDS011;8350;52.316;10.530;2023-04-15T11:28:29;37.67;;;28.05;;
16478;SDS011;8350;52.316;10.530;2023-04-15T11:30:57;35.75;;;28.15;;
16478;SDS011;8350;52.316;10.530;2023-04-15T11:33:30;39.70;;;28.45;;
16478;SDS011;8350;52.316;10.530;2023-04-15T11:35:57;40.97;;;28.38;;
16478;SDS011;8350;52.316;10.530;2023-04-15T11:38:24;38.85;;;29.50;;
16478;SDS011;8350;52.316;10.530;2023-04-15T11:40:51;41.38;;;28.40;;
16478;SDS011;8350;52.316;10.530;2023-04-15T11:43:19;47.60;;;31.02;;
16478;SDS011;8350;52.316;10.530;2023-04-15T11:45:52;39.53;;;28.75;;
16478;SDS011;8350;52.316;10.530;2023-04-15T11:48:21;42.95;;;30.02;;
16478;SDS011;8350;52.316;10.530;2023-04-15T11:50:52;42.30;;;30.35;;
16478;SDS011;8350;52.316;10.530;2023-04-15T11:53:20;42.95;;;29.95;;
16478;SDS011;8350;52.316;10.530;2023-04-15T11:55:48;46.97;;;32.95;;
16478;SDS011;8350;52.316;10.530;2023-04-15T11:58:17;47.08;;;31.17;;
16478;SDS011;8350;52.316;10.530;2023-04-15T12:00:46;44.38;;;31.25;;
16478;SDS011;8350;52.316;10.530;2023-04-15T12:03:17;46.00;;;31.42;;
16478;SDS011;8350;52.316;10.530;2023-04-15T12:08:48;42.83;;;28.63;;
16478;SDS011;8350;52.316;10.530;2023-04-15T12:11:30;45.00;;;30.65;;
16478;SDS011;8350;52.316;10.530;2023-04-15T12:14:02;47.78;;;30.67;;
16478;SDS011;8350;52.316;10.530;2023-04-15T12:16:32;48.85;;;32.42;;
16478;SDS011;8350;52.316;10.530;2023-04-15T12:19:03;47.42;;;31.75;;
16478;SDS011;8350;52.316;10.530;2023-04-15T12:21:36;46.38;;;31.55;;
16478;SDS011;8350;52.316;10.530;2023-04-15T12:24:11;47.10;;;29.42;;
16478;SDS011;8350;52.316;10.530;2023-04-15T12:26:42;44.50;;;29.98;;
16478;SDS011;8350;52.316;10.530;2023-04-15T12:29:11;41.03;;;30.10;;
16478;SDS011;8350;52.316;10.530;2023-04-15T12:31:51;43.47;;;29.88;;
16478;SDS011;8350;52.316;10.530;2023-04-15T12:34:25;43.42;;;28.45;;
16478;SDS011;8350;52.316;10.530;2023-04-15T12:36:53;39.70;;;28.73;;
16478;SDS011;8350;52.316;10.530;2023-04-15T12:39:23;44.63;;;31.02;;
16478;SDS011;8350;52.316;10.530;2023-04-15T12:41:55;34.97;;;27.35;;
16478;SDS011;8350;52.316;10.530;2023-04-15T12:44:22;42.45;;;27.98;;
16478;SDS011;8350;52.316;10.530;2023-04-15T12:46:51;36.70;;;27.13;;
16478;SDS011;8350;52.316;10.530;2023-04-15T12:49:18;42.10;;;29.05;;
16478;SDS011;8350;52.316;10.530;2023-04-15T12:51:46;38.58;;;26.63;;
16478;SDS011;8350;52.316;10.530;2023-04-15T12:54:14;36.38;;;27.77;;
16478;SDS011;8350;52.316;10.530;2023-04-15T12:56:42;36.40;;;28.88;;
16478;SDS011;8350;52.316;10.530;2023-04-15T12:59:08;32.53;;;27.00;;
16478;SDS011;8350;52.316;10.530;2023-04-15T13:01:39;37.50;;;27.85;;
16478;SDS011;8350;52.316;10.530;2023-04-15T13:04:07;36.47;;;27.48;;
16478;SDS011;8350;52.316;10.530;2023-04-15T13:06:34;38.75;;;28.77;;
16478;SDS011;8350;52.316;10.530;2023-04-15T13:09:02;36.28;;;27.88;;
16478;SDS011;8350;52.316;10.530;2023-04-15T13:11:30;35.75;;;27.65;;
16478;SDS011;8350;52.316;10.530;2023-04-15T13:13:59;35.25;;;27.35;;
16478;SDS011;8350;52.316;10.530;2023-04-15T13:16:27;35.95;;;26.90;;
16478;SDS011;8350;52.316;10.530;2023-04-15T13:18:55;35.80;;;27.02;;
16478;SDS011;8350;52.316;10.530;2023-04-15T13:21:24;36.92;;;27.85;;
16478;SDS011;8350;52.316;10.530;2023-04-15T13:23:51;35.30;;;26.45;;
16478;SDS011;8350;52.316;10.530;2023-04-15T13:26:18;33.70;;;26.42;;
16478;SDS011;8350;52.316;10.530;2023-04-15T13:28:45;37.45;;;26.20;;
16478;SDS011;8350;52.316;10.530;2023-04-15T13:31:13;31.73;;;26.40;;
16478;SDS011;8350;52.316;10.530;2023-04-15T13:33:39;31.20;;;24.88;;
16478;SDS011;8350;52.316;10.530;2023-04-15T13:36:07;33.30;;;27.38;;
16478;SDS011;8350;52.316;10.530;2023-04-15T13:38:35;32.33;;;26.08;;
16478;SDS011;8350;52.316;10.530;2023-04-15T13:41:02;35.15;;;26.98;;
16478;SDS011;8350;52.316;10.530;2023-04-15T13:43:29;31.85;;;25.63;;
16478;SDS011;8350;52.316;10.530;2023-04-15T13:45:58;29.42;;;24.30;;
16478;SDS011;8350;52.316;10.530;2023-04-15T13:48:25;31.60;;;26.33;;
16478;SDS011;8350;52.316;10.530;2023-04-15T13:50:52;30.50;;;24.92;;
16478;SDS011;8350;52.316;10.530;2023-04-15T13:53:19;29.67;;;24.80;;
16478;SDS011;8350;52.316;10.530;2023-04-15T13:55:47;30.83;;;24.55;;
16478;SDS011;8350;52.316;10.530;2023-04-15T13:58:14;29.75;;;25.02;;
16478;SDS011;8350;52.316;10.530;2023-04-15T14:00:42;30.27;;;24.80;;
16478;SDS011;8350;52.316;10.530;2023-04-15T14:03:08;27.33;;;24.35;;
16478;SDS011;8350;52.316;10.530;2023-04-15T14:05:36;29.40;;;26.02;;
16478;SDS011;8350;52.316;10.530;2023-04-15T14:08:03;28.67;;;24.20;;
16478;SDS011;8350;52.316;10.530;2023-04-15T14:10:30;30.40;;;25.17;;
16478;SDS011;8350;52.316;10.530;2023-04-15T14:12:58;33.45;;;26.25;;
16478;SDS011;8350;52.316;10.530;2023-04-15T14:15:25;33.83;;;26.58;;
16478;SDS011;8350;52.316;10.530;2023-04-15T14:17:52;31.40;;;26.15;;
16478;SDS011;8350;52.316;10.530;2023-04-15T14:20:19;32.13;;;25.92;;
16478;SDS011;8350;52.316;10.530;2023-04-15T14:22:49;28.08;;;24.52;;
16478;SDS011;8350;52.316;10.530;2023-04-15T14:25:16;29.00;;;25.55;;
16478;SDS011;8350;52.316;10.530;2023-04-15T14:27:43;32.10;;;26.58;;
16478;SDS011;8350;52.316;10.530;2023-04-15T14:30:12;28.88;;;24.83;;
16478;SDS011;8350;52.316;10.530;2023-04-15T14:32:40;27.50;;;24.20;;
16478;SDS011;8350;52.316;10.530;2023-04-15T14:35:07;27.75;;;24.55;;
16478;SDS011;8350;52.316;10.530;2023-04-15T14:37:34;29.80;;;24.92;;
16478;SDS011;8350;52.316;10.530;2023-04-15T14:40:01;30.15;;;25.90;;